createdAt,value
2023-03-11T00:00:32.467Z,96323.81
2023-03-11T00:03:01.641Z,96326.03
2023-03-11T00:05:35.164Z,96315.63
2023-03-11T00:08:04.345Z,96313.22
2023-03-11T00:10:38.998Z,96312.41
2023-03-11T00:13:08.566Z,96304.91
2023-03-11T00:15:36.630Z,96307.38
2023-03-11T00:18:03.985Z,96292.34
2023-03-11T00:20:34.275Z,96286.59
2023-03-11T00:23:01.845Z,96278.31
2023-03-11T00:25:31.704Z,96276.72
2023-03-11T00:27:59.436Z,96270.69
2023-03-11T00:30:27.148Z,96266.25
2023-03-11T00:32:56.663Z,96260.97
2023-03-11T00:35:26.326Z,96255.19
2023-03-11T00:37:55.784Z,96257.50
2023-03-11T00:40:25.154Z,96255.88
2023-03-11T00:42:52.998Z,96256.09
2023-03-11T00:45:21.372Z,96244.72
2023-03-11T00:47:48.510Z,96245.31
2023-03-11T00:50:19.357Z,96239.03
2023-03-11T00:52:47.668Z,96238.81
2023-03-11T00:55:17.716Z,96234.56
2023-03-11T00:57:46.001Z,96235.38
2023-03-11T01:00:19.224Z,96223.41
2023-03-11T01:02:46.605Z,96232.53
2023-03-11T01:05:14.750Z,96235.22
2023-03-11T01:07:42.176Z,96232.94
2023-03-11T01:10:10.559Z,96230.94
2023-03-11T01:12:37.634Z,96233.56
2023-03-11T01:15:06.044Z,96230.09
2023-03-11T01:17:33.205Z,96234.09
2023-03-11T01:20:00.238Z,96229.75
2023-03-11T01:22:27.367Z,96222.28
2023-03-11T01:24:55.160Z,96223.84
2023-03-11T01:27:22.446Z,96222.47
2023-03-11T01:29:49.489Z,96212.97
2023-03-11T01:32:16.665Z,96227.66
2023-03-11T01:34:43.837Z,96220.50
2023-03-11T01:37:11.044Z,96232.84
2023-03-11T01:39:38.233Z,96224.94
2023-03-11T01:42:05.761Z,96230.38
2023-03-11T01:44:33.650Z,96222.97
2023-03-11T01:47:02.253Z,96217.47
2023-03-11T01:49:32.911Z,96216.84
2023-03-11T01:52:08.028Z,96203.97
2023-03-11T01:54:42.158Z,96203.16
2023-03-11T01:57:13.343Z,96199.81
2023-03-11T01:59:47.407Z,96195.25
2023-03-11T02:02:29.612Z,96202.94
2023-03-11T02:04:57.506Z,96203.97
2023-03-11T02:07:24.805Z,96197.59
2023-03-11T02:09:52.324Z,96193.91
2023-03-11T02:12:20.202Z,96192.63
2023-03-11T02:14:51.582Z,96194.72
2023-03-11T02:17:18.898Z,96189.88
2023-03-11T02:19:45.987Z,96182.34
2023-03-11T02:22:14.423Z,96180.63
2023-03-11T02:24:48.757Z,96186.53
2023-03-11T02:27:18.705Z,96179.63
2023-03-11T02:29:50.254Z,96177.84
2023-03-11T02:32:19.696Z,96169.09
2023-03-11T02:34:47.269Z,96170.63
2023-03-11T02:37:17.061Z,96169.38
2023-03-11T02:39:53.165Z,96164.53
2023-03-11T02:42:25.239Z,96159.22
2023-03-11T02:45:10.905Z,96157.72
2023-03-11T02:47:40.565Z,96155.84
2023-03-11T02:50:13.831Z,96148.44
2023-03-11T02:52:41.139Z,96143.38
2023-03-11T02:55:10.229Z,96141.38
2023-03-11T02:57:37.754Z,96135.75
2023-03-11T03:00:13.432Z,96133.72
2023-03-11T03:02:44.548Z,96131.50
2023-03-11T03:05:11.984Z,96138.84
2023-03-11T03:07:39.436Z,96127.91
2023-03-11T03:10:07.521Z,96129.94
2023-03-11T03:12:34.752Z,96123.28
2023-03-11T03:15:01.900Z,96122.31
2023-03-11T03:17:29.166Z,96118.16
2023-03-11T03:19:56.357Z,96110.44
2023-03-11T03:22:27.541Z,96115.91
2023-03-11T03:24:55.331Z,96111.59
2023-03-11T03:27:22.420Z,96103.06
2023-03-11T03:29:49.577Z,96097.09
2023-03-11T03:32:16.948Z,96085.72
2023-03-11T03:34:44.026Z,96091.69
2023-03-11T03:37:11.115Z,96085.88
2023-03-11T03:39:38.410Z,96080.09
2023-03-11T03:42:06.727Z,96081.25
2023-03-11T03:44:39.561Z,96085.09
2023-03-11T03:47:07.601Z,96071.88
2023-03-11T03:49:35.075Z,96056.31
2023-03-11T03:52:02.712Z,96059.22
2023-03-11T03:54:32.223Z,96056.16
2023-03-11T03:56:59.311Z,96056.50
2023-03-11T03:59:26.406Z,96056.91
2023-03-11T04:01:58.103Z,96045.41
2023-03-11T04:04:27.056Z,96050.53
2023-03-11T04:06:54.885Z,96039.53
2023-03-11T04:09:22.092Z,96045.00
2023-03-11T04:11:49.299Z,96039.28
2023-03-11T04:14:18.149Z,96037.28
2023-03-11T04:16:53.200Z,96043.78
2023-03-11T04:19:20.601Z,96035.53
2023-03-11T04:21:47.880Z,96040.44
2023-03-11T04:24:15.278Z,96036.56
2023-03-11T04:26:43.164Z,96031.38
2023-03-11T04:29:14.386Z,96030.38
2023-03-11T04:31:47.460Z,96021.13
2023-03-11T04:34:14.862Z,96022.13
2023-03-11T04:36:42.269Z,96025.63
2023-03-11T04:39:12.418Z,96012.84
2023-03-11T04:41:43.053Z,96002.97
2023-03-11T04:44:14.018Z,96011.91
2023-03-11T04:46:41.272Z,96014.25
2023-03-11T04:49:10.458Z,96014.28
2023-03-11T04:51:38.079Z,96022.78
2023-03-11T04:54:06.549Z,96017.94
2023-03-11T04:56:34.126Z,96021.88
2023-03-11T04:59:01.583Z,96013.16
2023-03-11T05:01:31.243Z,96009.22
2023-03-11T05:04:01.792Z,96007.03
2023-03-11T05:06:29.251Z,95996.28
2023-03-11T05:08:56.547Z,95993.63
2023-03-11T05:11:24.244Z,95998.28
2023-03-11T05:13:51.962Z,95993.66
2023-03-11T05:16:20.374Z,96002.69
2023-03-11T05:18:47.658Z,96001.81
2023-03-11T05:21:16.125Z,96006.31
2023-03-11T05:23:45.464Z,96009.66
2023-03-11T05:26:14.572Z,96017.50
2023-03-11T05:28:43.855Z,96017.53
2023-03-11T05:31:11.640Z,96020.63
2023-03-11T05:33:39.412Z,96016.56
2023-03-11T05:36:10.852Z,96009.34
2023-03-11T05:38:41.555Z,96000.06
2023-03-11T05:41:09.171Z,96003.31
2023-03-11T05:43:36.909Z,95997.28
2023-03-11T05:46:04.322Z,96001.97
2023-03-11T05:48:32.232Z,96002.44
2023-03-11T05:51:00.072Z,95996.31
2023-03-11T05:53:27.340Z,96002.25
2023-03-11T05:55:58.400Z,96007.25
2023-03-11T05:58:28.401Z,95996.06
2023-03-11T06:00:55.821Z,95990.81
2023-03-11T06:03:23.356Z,95998.28
2023-03-11T06:05:51.194Z,96001.47
2023-03-11T06:08:20.487Z,95996.41
2023-03-11T06:10:48.979Z,95985.06
2023-03-11T06:13:17.969Z,95991.88
2023-03-11T06:15:51.161Z,95975.63
2023-03-11T06:18:19.956Z,95966.28
2023-03-11T06:20:47.093Z,95975.00
2023-03-11T06:23:14.229Z,95977.31
2023-03-11T06:25:41.495Z,95968.25
2023-03-11T06:28:10.028Z,95982.22
2023-03-11T06:30:38.121Z,95979.03
2023-03-11T06:33:09.839Z,95970.88
2023-03-11T06:35:37.037Z,95976.06
2023-03-11T06:38:04.151Z,95973.25
2023-03-11T06:40:31.877Z,95978.81
2023-03-11T06:42:59.185Z,95978.69
2023-03-11T06:45:29.062Z,95973.38
2023-03-11T06:47:56.900Z,95968.97
2023-03-11T06:50:24.234Z,95963.00
2023-03-11T06:52:53.677Z,95951.03
2023-03-11T06:55:21.349Z,95957.78
2023-03-11T06:57:48.529Z,95940.75
2023-03-11T07:00:16.671Z,95951.31
2023-03-11T07:02:49.507Z,95941.88
2023-03-11T07:05:18.253Z,95948.34
2023-03-11T07:07:46.851Z,95945.53
2023-03-11T07:10:14.637Z,95949.44
2023-03-11T07:12:41.957Z,95951.84
2023-03-11T07:15:09.883Z,95956.72
2023-03-11T07:17:37.156Z,95943.66
2023-03-11T07:20:04.857Z,95933.25
2023-03-11T07:22:31.948Z,95931.22
2023-03-11T07:24:59.118Z,95929.00
2023-03-11T07:27:28.394Z,95918.34
2023-03-11T07:29:55.483Z,95923.72
2023-03-11T07:32:22.611Z,95916.31
2023-03-11T07:34:49.773Z,95909.91
2023-03-11T07:37:16.895Z,95899.72
2023-03-11T07:39:43.979Z,95898.84
2023-03-11T07:42:11.131Z,95899.13
2023-03-11T07:44:39.373Z,95887.28
2023-03-11T07:47:06.685Z,95889.22
2023-03-11T07:49:36.090Z,95887.06
2023-03-11T07:52:03.220Z,95890.41
2023-03-11T07:54:30.391Z,95874.94
2023-03-11T07:56:57.452Z,95877.81
2023-03-11T07:59:24.574Z,95878.72
2023-03-11T08:01:51.867Z,95878.31
2023-03-11T08:04:18.944Z,95870.47
2023-03-11T08:06:47.807Z,95865.63
2023-03-11T08:09:15.318Z,95858.63
2023-03-11T08:11:42.626Z,95858.63
2023-03-11T08:14:09.791Z,95858.03
2023-03-11T08:16:39.353Z,95852.03
2023-03-11T08:19:06.454Z,95845.88
2023-03-11T08:21:33.651Z,95856.53
2023-03-11T08:24:02.614Z,95855.63
2023-03-11T08:26:31.277Z,95848.88
2023-03-11T08:28:59.472Z,95855.94
2023-03-11T08:31:29.868Z,95854.75
2023-03-11T08:34:01.033Z,95852.50
2023-03-11T08:36:28.677Z,95861.75
2023-03-11T08:38:55.786Z,95856.69
2023-03-11T08:41:22.992Z,95853.53
2023-03-11T08:43:52.343Z,95843.47
2023-03-11T08:46:27.391Z,95838.97
2023-03-11T08:48:55.185Z,95841.97
2023-03-11T08:51:23.710Z,95845.72
2023-03-11T08:53:52.044Z,95841.88
2023-03-11T08:56:19.689Z,95843.69
2023-03-11T08:58:47.348Z,95835.38
2023-03-11T09:01:14.512Z,95838.66
2023-03-11T09:03:41.559Z,95858.44
2023-03-11T09:06:13.877Z,95847.78
2023-03-11T09:08:41.474Z,95857.38
2023-03-11T09:11:09.454Z,95851.50
2023-03-11T09:13:36.614Z,95847.38
2023-03-11T09:16:06.033Z,95833.91
2023-03-11T09:18:33.185Z,95827.44
2023-03-11T09:21:01.294Z,95822.84
2023-03-11T09:23:28.441Z,95833.88
2023-03-11T09:25:55.523Z,95836.09
2023-03-11T09:28:22.798Z,95836.34
2023-03-11T09:30:49.919Z,95826.84
2023-03-11T09:33:17.283Z,95836.16
2023-03-11T09:35:45.014Z,95847.50
2023-03-11T09:38:12.145Z,95847.13
2023-03-11T09:41:04.462Z,95851.38
2023-03-11T09:43:54.543Z,95857.41
2023-03-11T10:17:34.161Z,95869.41
2023-03-11T10:20:16.165Z,95864.66
2023-03-11T10:23:01.821Z,95870.25
2023-03-11T10:25:51.434Z,95868.84
2023-03-11T10:28:21.048Z,95865.91
2023-03-11T10:30:49.652Z,95859.75
2023-03-11T10:33:29.496Z,95837.19
2023-03-11T10:36:00.760Z,95824.00
2023-03-11T10:38:32.865Z,95798.06
2023-03-11T10:41:05.209Z,95788.88
2023-03-11T10:43:39.073Z,95795.38
2023-03-11T10:46:17.467Z,95797.06
2023-03-11T10:48:44.612Z,95797.63
2023-03-11T10:51:22.909Z,95797.91
2023-03-11T10:53:59.824Z,95796.06
2023-03-11T10:56:31.701Z,95793.50
2023-03-11T10:59:00.164Z,95786.25
2023-03-11T11:01:29.089Z,95786.09
2023-03-11T11:04:01.032Z,95780.97
2023-03-11T11:06:36.397Z,95774.66
2023-03-11T11:09:26.855Z,95771.50
2023-03-11T11:12:12.019Z,95767.00
2023-03-11T11:14:51.325Z,95770.13
2023-03-11T11:17:21.244Z,95781.91
2023-03-11T11:19:49.682Z,95783.75
2023-03-11T11:22:19.447Z,95769.81
2023-03-11T11:24:48.756Z,95760.72
2023-03-11T11:27:28.056Z,95751.03
2023-03-11T11:30:21.679Z,95747.31
2023-03-11T11:32:49.313Z,95743.13
2023-03-11T11:35:17.835Z,95747.06
2023-03-11T11:37:51.677Z,95747.72
2023-03-11T11:40:26.482Z,95756.22
2023-03-11T11:43:05.275Z,95759.63
2023-03-11T11:45:41.383Z,95756.31
2023-03-11T11:48:49.986Z,95756.59
2023-03-11T11:51:43.112Z,95763.59
2023-03-11T11:54:31.380Z,95767.84
2023-03-11T11:56:58.885Z,95763.38
2023-03-11T11:59:27.151Z,95756.78
2023-03-11T12:02:11.893Z,95763.97
2023-03-11T12:04:45.833Z,95768.84
2023-03-11T12:07:24.998Z,95764.91
2023-03-11T12:10:21.632Z,95766.31
2023-03-11T12:13:22.438Z,95769.25
2023-03-11T12:16:12.818Z,95766.56
2023-03-11T12:19:01.860Z,95762.97
2023-03-11T12:21:58.213Z,95766.56
2023-03-11T12:24:42.885Z,95772.50
2023-03-11T12:27:34.135Z,95772.88
2023-03-11T12:30:16.922Z,95776.66
2023-03-11T12:32:57.728Z,95775.25
2023-03-11T12:35:28.042Z,95779.97
2023-03-11T12:38:13.310Z,95773.16
2023-03-11T12:40:42.832Z,95772.69
2023-03-11T12:43:35.905Z,95775.09
2023-03-11T12:46:05.218Z,95770.34
2023-03-11T12:48:35.197Z,95769.53
2023-03-11T12:51:02.749Z,95761.69
2023-03-11T12:53:48.093Z,95767.53
2023-03-11T12:56:34.817Z,95762.03
2023-03-11T12:59:35.360Z,95761.78
2023-03-11T13:02:20.667Z,95764.09
2023-03-11T13:05:15.533Z,95772.25
2023-03-11T13:07:52.798Z,95774.53
2023-03-11T13:10:34.910Z,95770.06
2023-03-11T13:13:02.734Z,95777.44
2023-03-11T13:15:34.905Z,95768.28
2023-03-11T13:18:12.730Z,95778.31
2023-03-11T13:20:41.576Z,95771.34
2023-03-11T13:23:14.748Z,95771.88
2023-03-11T13:25:47.975Z,95767.31
2023-03-11T13:28:47.404Z,95758.75
2023-03-11T13:31:18.010Z,95754.53
2023-03-11T13:34:00.096Z,95750.94
2023-03-11T13:36:46.719Z,95749.19
2023-03-11T13:39:46.010Z,95751.09
2023-03-11T13:42:38.405Z,95751.47
2023-03-11T13:45:08.338Z,95748.06
2023-03-11T13:47:37.006Z,95749.88
2023-03-11T13:50:10.425Z,95746.78
2023-03-11T13:52:43.967Z,95759.69
2023-03-11T13:55:31.270Z,95753.25
2023-03-11T13:57:58.956Z,95742.88
2023-03-11T14:00:29.365Z,95748.72
2023-03-11T14:02:59.307Z,95746.63
2023-03-11T14:05:35.157Z,95751.97
2023-03-11T14:08:20.720Z,95755.22
2023-03-11T14:10:58.337Z,95755.25
2023-03-11T14:13:28.607Z,95762.84
2023-03-11T14:16:10.144Z,95766.22
2023-03-11T14:18:39.882Z,95768.50
2023-03-11T14:21:16.616Z,95768.44
2023-03-11T14:23:52.426Z,95760.94
2023-03-11T14:26:31.540Z,95771.34
2023-03-11T14:29:11.500Z,95761.81
2023-03-11T14:31:41.612Z,95769.81
2023-03-11T14:34:11.374Z,95766.81
2023-03-11T14:36:57.265Z,95764.31
2023-03-11T14:39:33.063Z,95759.03
2023-03-11T14:42:20.335Z,95759.25
2023-03-11T14:44:53.375Z,95750.84
2023-03-11T14:47:54.331Z,95751.19
2023-03-11T14:50:25.803Z,95758.00
2023-03-11T14:53:02.463Z,95767.25
2023-03-11T14:55:55.200Z,95775.28
2023-03-11T14:58:34.717Z,95774.31
2023-03-11T15:01:12.121Z,95770.34
2023-03-11T15:03:50.805Z,95782.53
2023-03-11T15:06:21.360Z,95783.59
2023-03-11T15:08:58.579Z,95790.19
2023-03-11T15:11:28.474Z,95785.84
2023-03-11T15:14:17.238Z,95787.44
2023-03-11T15:16:44.650Z,95796.59
2023-03-11T15:19:29.674Z,95796.94
2023-03-11T15:22:21.693Z,95801.41
2023-03-11T15:24:57.939Z,95809.03
2023-03-11T15:27:30.264Z,95809.13
2023-03-11T15:29:58.596Z,95808.31
2023-03-11T15:32:29.975Z,95815.19
2023-03-11T15:35:10.742Z,95817.09
2023-03-11T15:37:38.919Z,95810.88
2023-03-11T15:40:44.930Z,95823.66
2023-03-11T15:43:15.544Z,95836.41
2023-03-11T15:45:44.252Z,95839.41
2023-03-11T15:48:12.342Z,95837.66
2023-03-11T15:50:54.806Z,95841.69
2023-03-11T15:53:24.508Z,95844.84
2023-03-11T15:55:53.744Z,95846.69
2023-03-11T15:58:21.865Z,95847.13
2023-03-11T16:00:56.148Z,95847.72
2023-03-11T16:03:24.370Z,95858.13
2023-03-11T16:05:51.478Z,95855.56
2023-03-11T16:08:18.523Z,95868.94
2023-03-11T16:10:45.580Z,95868.63
2023-03-11T16:13:14.542Z,95882.69
2023-03-11T16:15:42.527Z,95885.09
2023-03-11T16:18:10.345Z,95884.88
2023-03-11T16:20:50.061Z,95889.34
2023-03-11T16:23:36.170Z,95895.75
2023-03-11T16:26:11.087Z,95893.91
2023-03-11T16:28:38.831Z,95903.94
2023-03-11T16:31:08.035Z,95912.63
2023-03-11T16:33:38.402Z,95914.94
2023-03-11T16:36:06.142Z,95918.41
2023-03-11T16:38:45.444Z,95920.69
2023-03-11T16:41:12.696Z,95920.41
2023-03-11T16:43:39.749Z,95926.16
2023-03-11T16:46:06.897Z,95925.16
2023-03-11T16:48:34.099Z,95933.69
2023-03-11T16:51:01.652Z,95940.56
2023-03-11T16:53:28.887Z,95935.88
2023-03-11T16:55:56.410Z,95942.31
2023-03-11T16:58:23.553Z,95939.31
2023-03-11T17:00:50.654Z,95940.09
2023-03-11T17:03:21.600Z,95938.16
2023-03-11T17:05:49.421Z,95943.56
2023-03-11T17:08:18.394Z,95947.31
2023-03-11T17:10:46.404Z,95949.47
2023-03-11T17:13:15.966Z,95953.88
2023-03-11T17:15:45.903Z,95955.59
2023-03-11T17:18:13.695Z,95961.28
2023-03-11T17:20:43.629Z,95956.59
2023-03-11T17:23:10.810Z,95974.06
2023-03-11T17:25:41.706Z,95978.13
2023-03-11T17:28:09.373Z,95982.56
2023-03-11T17:30:37.629Z,95988.44
2023-03-11T17:33:05.171Z,95991.06
2023-03-11T17:35:32.369Z,95996.34
2023-03-11T17:37:59.743Z,95989.88
2023-03-11T17:40:29.385Z,95990.22
2023-03-11T17:42:56.594Z,95995.84
2023-03-11T17:45:23.650Z,95997.00
2023-03-11T17:47:50.891Z,96003.69
2023-03-11T17:50:18.340Z,96010.44
2023-03-11T17:52:47.133Z,96010.63
2023-03-11T17:55:14.260Z,96014.47
2023-03-11T17:57:45.555Z,96007.50
2023-03-11T18:00:15.104Z,96007.84
2023-03-11T18:02:42.788Z,96013.00
2023-03-11T18:05:10.502Z,96013.22
2023-03-11T18:07:41.244Z,96029.22
2023-03-11T18:10:09.705Z,96037.66
2023-03-11T18:12:37.047Z,96052.75
2023-03-11T18:15:07.421Z,96061.28
2023-03-11T18:17:37.623Z,96056.81
2023-03-11T18:20:05.646Z,96067.72
2023-03-11T18:22:35.285Z,96064.44
2023-03-11T18:25:02.627Z,96065.41
2023-03-11T18:27:29.748Z,96070.09
2023-03-11T18:29:56.868Z,96075.03
2023-03-11T18:32:24.831Z,96083.16
2023-03-11T18:34:52.344Z,96080.53
2023-03-11T18:37:19.546Z,96082.66
2023-03-11T18:39:46.621Z,96085.56
2023-03-11T18:42:16.054Z,96069.44
2023-03-11T18:44:43.183Z,96086.31
2023-03-11T18:47:10.374Z,96089.16
2023-03-11T18:49:37.456Z,96102.03
2023-03-11T18:52:04.745Z,96109.47
2023-03-11T18:54:32.256Z,96109.09
2023-03-11T18:56:59.410Z,96111.44
2023-03-11T18:59:27.929Z,96116.56
2023-03-11T19:01:55.522Z,96126.66
2023-03-11T19:04:22.870Z,96136.28
2023-03-11T19:06:50.433Z,96153.22
2023-03-11T19:09:21.062Z,96154.06
2023-03-11T19:11:48.227Z,96149.94
2023-03-11T19:14:15.953Z,96148.34
2023-03-11T19:16:43.169Z,96147.72
2023-03-11T19:19:11.930Z,96150.41
2023-03-11T19:21:39.345Z,96170.19
2023-03-11T19:24:06.703Z,96167.50
2023-03-11T19:26:44.868Z,96172.38
2023-03-11T19:29:14.301Z,96178.06
2023-03-11T19:31:43.751Z,96195.31
2023-03-11T19:34:11.338Z,96205.94
2023-03-11T19:36:39.387Z,96206.16
2023-03-11T19:39:07.030Z,96211.16
2023-03-11T19:41:34.179Z,96208.94
2023-03-11T19:44:01.637Z,96215.53
2023-03-11T19:46:29.941Z,96218.41
2023-03-11T19:48:57.184Z,96229.44
2023-03-11T19:51:25.418Z,96232.25
2023-03-11T19:53:55.572Z,96226.84
2023-03-11T19:56:22.793Z,96252.91
2023-03-11T19:58:50.117Z,96240.94
2023-03-11T20:01:21.609Z,96253.69
2023-03-11T20:03:48.763Z,96257.59
2023-03-11T20:06:18.619Z,96265.91
2023-03-11T20:08:45.898Z,96270.13
2023-03-11T20:11:13.174Z,96271.50
2023-03-11T20:13:42.786Z,96266.84
2023-03-11T20:16:18.531Z,96283.44
2023-03-11T20:18:50.367Z,96265.75
2023-03-11T20:21:17.773Z,96281.94
2023-03-11T20:23:44.875Z,96279.78
2023-03-11T20:26:14.980Z,96276.78
2023-03-11T20:28:42.718Z,96271.22
2023-03-11T20:31:24.721Z,96284.38
2023-03-11T20:33:53.457Z,96292.81
2023-03-11T20:36:27.050Z,96292.09
2023-03-11T20:38:55.429Z,96287.03
2023-03-11T20:41:24.036Z,96297.13
2023-03-11T20:43:56.759Z,96287.97
2023-03-11T20:46:24.076Z,96304.34
2023-03-11T20:48:51.368Z,96305.50
2023-03-11T20:51:20.751Z,96309.94
2023-03-11T20:53:49.164Z,96316.47
2023-03-11T20:56:20.264Z,96312.06
2023-03-11T20:58:51.054Z,96305.34
2023-03-11T21:01:28.008Z,96306.38
2023-03-11T21:03:58.450Z,96314.84
2023-03-11T21:06:29.209Z,96301.13
2023-03-11T21:08:59.143Z,96312.84
2023-03-11T21:11:26.929Z,96320.19
2023-03-11T21:13:54.904Z,96310.25
2023-03-11T21:16:23.029Z,96321.50
2023-03-11T21:18:50.460Z,96322.47
2023-03-11T21:21:18.411Z,96325.22
2023-03-11T21:23:48.226Z,96335.91
2023-03-11T21:26:17.037Z,96341.94
2023-03-11T21:28:47.069Z,96352.38
2023-03-11T21:31:18.557Z,96351.09
2023-03-11T21:33:46.114Z,96349.94
2023-03-11T21:36:15.845Z,96356.44
2023-03-11T21:38:43.142Z,96349.88
2023-03-11T21:41:13.321Z,96359.38
2023-03-11T21:43:44.614Z,96360.56
2023-03-11T21:46:15.476Z,96359.00
2023-03-11T21:48:43.416Z,96364.13
2023-03-11T21:51:10.839Z,96371.38
2023-03-11T21:53:38.179Z,96365.63
2023-03-11T21:56:06.268Z,96382.88
2023-03-11T21:58:33.880Z,96398.84
2023-03-11T22:01:01.474Z,96401.47
2023-03-11T22:03:29.107Z,96408.72
2023-03-11T22:06:00.381Z,96404.66
2023-03-11T22:08:27.929Z,96401.22
2023-03-11T22:10:55.414Z,96412.75
2023-03-11T22:13:23.961Z,96419.44
2023-03-11T22:15:51.645Z,96414.72
2023-03-11T22:18:18.932Z,96427.44
2023-03-11T22:20:46.129Z,96423.66
2023-03-11T22:23:13.314Z,96433.34
2023-03-11T22:25:40.498Z,96436.31
2023-03-11T22:28:10.488Z,96439.13
2023-03-11T22:30:37.677Z,96439.56
2023-03-11T22:33:04.803Z,96452.84
2023-03-11T22:35:31.973Z,96457.53
2023-03-11T22:37:59.154Z,96462.34
2023-03-11T22:40:27.055Z,96476.34
2023-03-11T22:42:54.198Z,96471.34
2023-03-11T22:45:22.477Z,96474.78
2023-03-11T22:47:50.540Z,96485.19
2023-03-11T22:50:19.115Z,96483.00
2023-03-11T22:52:46.274Z,96502.47
2023-03-11T22:55:13.320Z,96514.41
2023-03-11T22:57:40.441Z,96509.56
2023-03-11T23:00:17.224Z,96507.34
2023-03-11T23:02:49.458Z,96510.00
2023-03-11T23:05:16.668Z,96511.69
2023-03-11T23:07:43.768Z,96510.09
2023-03-11T23:10:12.965Z,96526.91
2023-03-11T23:12:40.505Z,96528.41
2023-03-11T23:15:11.073Z,96525.13
2023-03-11T23:17:38.697Z,96534.88
2023-03-11T23:20:07.955Z,96547.94
2023-03-11T23:22:37.170Z,96556.69
2023-03-11T23:25:06.419Z,96567.38
2023-03-11T23:27:33.536Z,96571.72
2023-03-11T23:30:00.754Z,96573.41
2023-03-11T23:32:28.514Z,96585.63
2023-03-11T23:34:55.668Z,96575.63
2023-03-11T23:37:23.827Z,96581.78
2023-03-11T23:39:50.926Z,96580.28
2023-03-11T23:42:25.498Z,96589.19
2023-03-11T23:44:53.397Z,96593.72
2023-03-11T23:47:20.661Z,96590.44
2023-03-11T23:49:47.778Z,96597.00
2023-03-11T23:52:15.123Z,96597.13
2023-03-11T23:54:42.396Z,96598.22
2023-03-11T23:57:09.447Z,96605.47
2023-03-11T23:59:36.554Z,96605.09
